sensor_id;sensor_type;location;lat;lon;timestamp;temperature;humidity
19829;DHT22;10075;50.924;4.396;2023-02-22T00:00:11;7.40;99.90
19829;DHT22;10075;50.924;4.396;2023-02-22T00:02:45;7.40;99.90
19829;DHT22;10075;50.924;4.396;2023-02-22T00:05:13;7.50;99.90
19829;DHT22;10075;50.924;4.396;2023-02-22T00:07:43;7.50;99.90
19829;DHT22;10075;50.924;4.396;2023-02-22T00:10:10;7.60;99.90
19829;DHT22;10075;50.924;4.396;2023-02-22T00:12:39;7.70;99.90
19829;DHT22;10075;50.924;4.396;2023-02-22T00:15:08;7.70;99.90
19829;DHT22;10075;50.924;4.396;2023-02-22T00:17:37;7.60;99.90
19829;DHT22;10075;50.924;4.396;2023-02-22T00:20:05;7.60;99.90
19829;DHT22;10075;50.924;4.396;2023-02-22T00:22:33;7.50;99.90
19829;DHT22;10075;50.924;4.396;2023-02-22T00:25:01;7.60;99.90
19829;DHT22;10075;50.924;4.396;2023-02-22T00:27:28;7.70;99.90
19829;DHT22;10075;50.924;4.396;2023-02-22T00:29:55;7.70;99.90
19829;DHT22;10075;50.924;4.396;2023-02-22T00:32:23;7.70;99.90
19829;DHT22;10075;50.924;4.396;2023-02-22T00:34:51;7.50;99.90
19829;DHT22;10075;50.924;4.396;2023-02-22T00:37:19;7.50;99.90
19829;DHT22;10075;50.924;4.396;2023-02-22T00:39:46;7.60;99.90
19829;DHT22;10075;50.924;4.396;2023-02-22T00:42:15;7.50;99.90
19829;DHT22;10075;50.924;4.396;2023-02-22T00:44:43;7.60;99.90
19829;DHT22;10075;50.924;4.396;2023-02-22T00:47:10;7.60;99.90
19829;DHT22;10075;50.924;4.396;2023-02-22T00:49:37;7.50;99.90
19829;DHT22;10075;50.924;4.396;2023-02-22T00:52:05;7.50;99.90
19829;DHT22;10075;50.924;4.396;2023-02-22T00:54:33;7.50;99.90
19829;DHT22;10075;50.924;4.396;2023-02-22T00:57:01;7.40;99.90
19829;DHT22;10075;50.924;4.396;2023-02-22T00:59:30;7.30;99.90
19829;DHT22;10075;50.924;4.396;2023-02-22T01:01:57;7.20;99.90
19829;DHT22;10075;50.924;4.396;2023-02-22T01:04:24;7.10;99.90
19829;DHT22;10075;50.924;4.396;2023-02-22T01:06:51;7.10;99.90
19829;DHT22;10075;50.924;4.396;2023-02-22T01:09:19;7.20;99.90
19829;DHT22;10075;50.924;4.396;2023-02-22T01:11:46;7.30;99.90
19829;DHT22;10075;50.924;4.396;2023-02-22T01:14:13;7.30;99.90
19829;DHT22;10075;50.924;4.396;2023-02-22T01:16:41;7.40;99.90
19829;DHT22;10075;50.924;4.396;2023-02-22T01:19:08;7.40;99.90
19829;DHT22;10075;50.924;4.396;2023-02-22T01:21:38;7.30;99.90
19829;DHT22;10075;50.924;4.396;2023-02-22T01:24:06;7.30;99.90
19829;DHT22;10075;50.924;4.396;2023-02-22T01:26:33;7.20;99.90
19829;DHT22;10075;50.924;4.396;2023-02-22T01:29:00;7.20;99.90
19829;DHT22;10075;50.924;4.396;2023-02-22T01:31:27;7.40;99.90
19829;DHT22;10075;50.924;4.396;2023-02-22T01:33:55;7.40;99.90
19829;DHT22;10075;50.924;4.396;2023-02-22T01:36:22;7.40;99.90
19829;DHT22;10075;50.924;4.396;2023-02-22T01:38:49;7.30;99.90
19829;DHT22;10075;50.924;4.396;2023-02-22T01:41:16;7.40;99.90
19829;DHT22;10075;50.924;4.396;2023-02-22T01:43:43;7.40;99.90
19829;DHT22;10075;50.924;4.396;2023-02-22T01:46:20;7.30;99.90
19829;DHT22;10075;50.924;4.396;2023-02-22T01:48:51;7.20;99.90
19829;DHT22;10075;50.924;4.396;2023-02-22T01:51:22;7.10;99.90
19829;DHT22;10075;50.924;4.396;2023-02-22T01:53:52;6.90;99.90
19829;DHT22;10075;50.924;4.396;2023-02-22T01:56:22;6.90;99.90
19829;DHT22;10075;50.924;4.396;2023-02-22T01:58:55;7.00;99.90
19829;DHT22;10075;50.924;4.396;2023-02-22T02:01:24;7.00;99.90
19829;DHT22;10075;50.924;4.396;2023-02-22T02:03:54;6.80;99.90
19829;DHT22;10075;50.924;4.396;2023-02-22T02:06:25;6.80;99.90
19829;DHT22;10075;50.924;4.396;2023-02-22T02:08:59;6.80;99.90
19829;DHT22;10075;50.924;4.396;2023-02-22T02:11:28;6.80;99.90
19829;DHT22;10075;50.924;4.396;2023-02-22T02:13:57;6.60;99.90
19829;DHT22;10075;50.924;4.396;2023-02-22T02:16:26;6.70;99.90
19829;DHT22;10075;50.924;4.396;2023-02-22T02:18:59;6.60;99.90
19829;DHT22;10075;50.924;4.396;2023-02-22T02:24:58;6.70;99.90
19829;DHT22;10075;50.924;4.396;2023-02-22T02:27:39;6.70;99.90
19829;DHT22;10075;50.924;4.396;2023-02-22T02:30:38;6.60;99.90
19829;DHT22;10075;50.924;4.396;2023-02-22T02:33:14;6.50;99.90
19829;DHT22;10075;50.924;4.396;2023-02-22T02:35:48;6.40;99.90
19829;DHT22;10075;50.924;4.396;2023-02-22T02:38:25;6.50;99.90
19829;DHT22;10075;50.924;4.396;2023-02-22T02:41:02;6.50;99.90
19829;DHT22;10075;50.924;4.396;2023-02-22T02:43:35;6.50;99.90
19829;DHT22;10075;50.924;4.396;2023-02-22T02:46:06;6.60;99.90
19829;DHT22;10075;50.924;4.396;2023-02-22T02:48:39;6.60;99.90
19829;DHT22;10075;50.924;4.396;2023-02-22T02:51:09;6.60;99.90
19829;DHT22;10075;50.924;4.396;2023-02-22T02:53:41;6.80;99.90
19829;DHT22;10075;50.924;4.396;2023-02-22T02:56:10;6.80;99.90
19829;DHT22;10075;50.924;4.396;2023-02-22T02:58:46;6.80;99.90
19829;DHT22;10075;50.924;4.396;2023-02-22T03:01:22;6.80;99.90
19829;DHT22;10075;50.924;4.396;2023-02-22T03:04:06;6.60;99.90
19829;DHT22;10075;50.924;4.396;2023-02-22T03:06:57;6.60;99.90
19829;DHT22;10075;50.924;4.396;2023-02-22T03:09:37;6.70;99.90
19829;DHT22;10075;50.924;4.396;2023-02-22T03:12:16;6.80;99.90
19829;DHT22;10075;50.924;4.396;2023-02-22T03:14:52;6.80;99.90
19829;DHT22;10075;50.924;4.396;2023-02-22T03:17:25;6.70;99.90
19829;DHT22;10075;50.924;4.396;2023-02-22T03:19:58;6.70;99.90
19829;DHT22;10075;50.924;4.396;2023-02-22T03:22:32;6.80;99.90
19829;DHT22;10075;50.924;4.396;2023-02-22T03:25:04;6.80;99.90
19829;DHT22;10075;50.924;4.396;2023-02-22T03:27:36;6.80;99.90
19829;DHT22;10075;50.924;4.396;2023-02-22T03:30:11;6.70;99.90
19829;DHT22;10075;50.924;4.396;2023-02-22T03:32:44;6.70;99.90
19829;DHT22;10075;50.924;4.396;2023-02-22T03:35:17;6.80;99.90
19829;DHT22;10075;50.924;4.396;2023-02-22T03:37:49;6.80;99.90
19829;DHT22;10075;50.924;4.396;2023-02-22T03:40:20;6.70;99.90
19829;DHT22;10075;50.924;4.396;2023-02-22T03:42:53;6.60;99.90
19829;DHT22;10075;50.924;4.396;2023-02-22T03:45:24;6.60;99.90
19829;DHT22;10075;50.924;4.396;2023-02-22T03:47:57;6.60;99.90
19829;DHT22;10075;50.924;4.396;2023-02-22T03:50:28;6.50;99.90
19829;DHT22;10075;50.924;4.396;2023-02-22T03:52:57;6.50;99.90
19829;DHT22;10075;50.924;4.396;2023-02-22T03:55:25;6.30;99.90
19829;DHT22;10075;50.924;4.396;2023-02-22T03:57:55;6.20;99.90
19829;DHT22;10075;50.924;4.396;2023-02-22T04:00:25;6.20;99.90
19829;DHT22;10075;50.924;4.396;2023-02-22T04:02:52;6.20;99.90
19829;DHT22;10075;50.924;4.396;2023-02-22T04:05:19;6.20;99.90
19829;DHT22;10075;50.924;4.396;2023-02-22T04:07:48;6.20;99.90
19829;DHT22;10075;50.924;4.396;2023-02-22T04:10:15;6.10;99.90
19829;DHT22;10075;50.924;4.396;2023-02-22T04:12:42;6.10;99.90
19829;DHT22;10075;50.924;4.396;2023-02-22T04:15:11;6.20;99.90
19829;DHT22;10075;50.924;4.396;2023-02-22T04:17:40;6.10;99.90
19829;DHT22;10075;50.924;4.396;2023-02-22T04:20:08;6.10;99.90
19829;DHT22;10075;50.924;4.396;2023-02-22T04:22:36;6.10;99.90
19829;DHT22;10075;50.924;4.396;2023-02-22T04:25:05;6.00;99.90
19829;DHT22;10075;50.924;4.396;2023-02-22T04:27:32;6.00;99.90
19829;DHT22;10075;50.924;4.396;2023-02-22T04:29:59;6.00;99.90
19829;DHT22;10075;50.924;4.396;2023-02-22T04:32:26;6.10;99.90
19829;DHT22;10075;50.924;4.396;2023-02-22T04:34:53;6.10;99.90
19829;DHT22;10075;50.924;4.396;2023-02-22T04:37:20;6.10;99.90
19829;DHT22;10075;50.924;4.396;2023-02-22T04:39:47;6.10;99.90
19829;DHT22;10075;50.924;4.396;2023-02-22T04:42:15;6.00;99.90
19829;DHT22;10075;50.924;4.396;2023-02-22T04:44:42;6.00;99.90
19829;DHT22;10075;50.924;4.396;2023-02-22T04:47:10;5.90;99.90
19829;DHT22;10075;50.924;4.396;2023-02-22T04:49:36;5.90;99.90
19829;DHT22;10075;50.924;4.396;2023-02-22T04:52:03;5.90;99.90
19829;DHT22;10075;50.924;4.396;2023-02-22T04:54:30;5.90;99.90
19829;DHT22;10075;50.924;4.396;2023-02-22T04:56:57;5.80;99.90
19829;DHT22;10075;50.924;4.396;2023-02-22T04:59:26;5.90;99.90
19829;DHT22;10075;50.924;4.396;2023-02-22T05:01:53;5.90;99.90
19829;DHT22;10075;50.924;4.396;2023-02-22T05:04:20;5.80;99.90
19829;DHT22;10075;50.924;4.396;2023-02-22T05:06:47;5.90;99.90
19829;DHT22;10075;50.924;4.396;2023-02-22T05:09:14;5.90;99.90
19829;DHT22;10075;50.924;4.396;2023-02-22T05:11:41;5.80;99.90
19829;DHT22;10075;50.924;4.396;2023-02-22T05:14:08;5.90;99.90
19829;DHT22;10075;50.924;4.396;2023-02-22T05:16:36;5.80;99.90
19829;DHT22;10075;50.924;4.396;2023-02-22T05:19:04;5.90;99.90
19829;DHT22;10075;50.924;4.396;2023-02-22T05:21:31;5.90;99.90
19829;DHT22;10075;50.924;4.396;2023-02-22T05:23:58;5.90;99.90
19829;DHT22;10075;50.924;4.396;2023-02-22T05:26:25;5.90;99.90
19829;DHT22;10075;50.924;4.396;2023-02-22T05:28:52;5.90;99.90
19829;DHT22;10075;50.924;4.396;2023-02-22T05:31:19;5.90;99.90
19829;DHT22;10075;50.924;4.396;2023-02-22T05:33:47;5.90;99.90
19829;DHT22;10075;50.924;4.396;2023-02-22T05:36:14;5.80;99.90
19829;DHT22;10075;50.924;4.396;2023-02-22T05:38:42;5.70;99.90
19829;DHT22;10075;50.924;4.396;2023-02-22T05:41:10;5.60;99.90
19829;DHT22;10075;50.924;4.396;2023-02-22T05:43:37;5.70;99.90
19829;DHT22;10075;50.924;4.396;2023-02-22T05:46:05;5.70;99.90
19829;DHT22;10075;50.924;4.396;2023-02-22T05:48:32;5.90;99.90
19829;DHT22;10075;50.924;4.396;2023-02-22T05:51:01;6.00;99.90
19829;DHT22;10075;50.924;4.396;2023-02-22T05:53:28;6.00;99.90
19829;DHT22;10075;50.924;4.396;2023-02-22T05:55:55;6.00;99.90
19829;DHT22;10075;50.924;4.396;2023-02-22T05:58:22;6.10;99.90
19829;DHT22;10075;50.924;4.396;2023-02-22T06:00:49;6.30;99.90
19829;DHT22;10075;50.924;4.396;2023-02-22T06:03:16;6.40;99.90
19829;DHT22;10075;50.924;4.396;2023-02-22T06:05:43;6.40;99.90
19829;DHT22;10075;50.924;4.396;2023-02-22T06:08:11;6.30;99.90
19829;DHT22;10075;50.924;4.396;2023-02-22T06:10:38;6.30;99.90
19829;DHT22;10075;50.924;4.396;2023-02-22T06:13:06;6.30;99.90
19829;DHT22;10075;50.924;4.396;2023-02-22T06:15:33;6.20;99.90
19829;DHT22;10075;50.924;4.396;2023-02-22T06:18:00;6.30;99.90
19829;DHT22;10075;50.924;4.396;2023-02-22T06:20:29;6.30;99.90
19829;DHT22;10075;50.924;4.396;2023-02-22T06:22:57;6.30;99.90
19829;DHT22;10075;50.924;4.396;2023-02-22T06:25:26;6.40;99.90
19829;DHT22;10075;50.924;4.396;2023-02-22T06:27:55;6.30;99.90
19829;DHT22;10075;50.924;4.396;2023-02-22T06:30:24;6.40;99.90
19829;DHT22;10075;50.924;4.396;2023-02-22T06:32:51;6.40;99.90
19829;DHT22;10075;50.924;4.396;2023-02-22T06:35:18;6.40;99.90
19829;DHT22;10075;50.924;4.396;2023-02-22T06:37:45;6.30;99.90
19829;DHT22;10075;50.924;4.396;2023-02-22T06:40:13;6.30;99.90
19829;DHT22;10075;50.924;4.396;2023-02-22T06:42:42;6.30;99.90
19829;DHT22;10075;50.924;4.396;2023-02-22T06:45:09;6.30;99.90
19829;DHT22;10075;50.924;4.396;2023-02-22T06:47:37;6.30;99.90
19829;DHT22;10075;50.924;4.396;2023-02-22T06:50:06;6.30;99.90
19829;DHT22;10075;50.924;4.396;2023-02-22T06:52:33;6.50;99.90
19829;DHT22;10075;50.924;4.396;2023-02-22T06:55:00;6.60;99.90
19829;DHT22;10075;50.924;4.396;2023-02-22T06:57:27;6.50;99.90
19829;DHT22;10075;50.924;4.396;2023-02-22T06:59:56;6.40;99.90
19829;DHT22;10075;50.924;4.396;2023-02-22T07:02:23;6.40;99.90
19829;DHT22;10075;50.924;4.396;2023-02-22T07:04:50;6.40;99.90
19829;DHT22;10075;50.924;4.396;2023-02-22T07:07:17;6.50;99.90
19829;DHT22;10075;50.924;4.396;2023-02-22T07:09:45;6.50;99.90
19829;DHT22;10075;50.924;4.396;2023-02-22T07:12:13;6.50;99.90
19829;DHT22;10075;50.924;4.396;2023-02-22T07:14:40;6.50;99.90
19829;DHT22;10075;50.924;4.396;2023-02-22T07:17:08;6.50;99.90
19829;DHT22;10075;50.924;4.396;2023-02-22T07:19:36;6.60;99.90
19829;DHT22;10075;50.924;4.396;2023-02-22T07:22:03;6.60;99.90
19829;DHT22;10075;50.924;4.396;2023-02-22T07:24:30;6.70;99.90
19829;DHT22;10075;50.924;4.396;2023-02-22T07:26:59;6.70;99.90
19829;DHT22;10075;50.924;4.396;2023-02-22T07:29:26;6.70;99.90
19829;DHT22;10075;50.924;4.396;2023-02-22T07:31:53;6.70;99.90
19829;DHT22;10075;50.924;4.396;2023-02-22T07:34:23;6.60;99.90
19829;DHT22;10075;50.924;4.396;2023-02-22T07:36:50;6.90;99.90
19829;DHT22;10075;50.924;4.396;2023-02-22T07:39:17;7.10;99.90
19829;DHT22;10075;50.924;4.396;2023-02-22T07:41:45;7.20;99.90
19829;DHT22;10075;50.924;4.396;2023-02-22T07:44:12;7.30;99.90
19829;DHT22;10075;50.924;4.396;2023-02-22T07:46:39;7.30;99.90
19829;DHT22;10075;50.924;4.396;2023-02-22T07:49:06;7.40;99.90
19829;DHT22;10075;50.924;4.396;2023-02-22T07:51:34;7.70;99.90
19829;DHT22;10075;50.924;4.396;2023-02-22T07:54:01;7.80;99.90
19829;DHT22;10075;50.924;4.396;2023-02-22T07:56:28;7.90;99.90
19829;DHT22;10075;50.924;4.396;2023-02-22T07:58:55;7.90;99.90
19829;DHT22;10075;50.924;4.396;2023-02-22T08:01:22;8.10;99.90
19829;DHT22;10075;50.924;4.396;2023-02-22T08:03:49;8.20;99.90
19829;DHT22;10075;50.924;4.396;2023-02-22T08:06:17;8.30;99.90
19829;DHT22;10075;50.924;4.396;2023-02-22T08:08:46;8.50;99.90
19829;DHT22;10075;50.924;4.396;2023-02-22T08:11:13;8.60;99.90
19829;DHT22;10075;50.924;4.396;2023-02-22T08:13:40;8.60;99.90
19829;DHT22;10075;50.924;4.396;2023-02-22T08:16:07;8.70;99.90
19829;DHT22;10075;50.924;4.396;2023-02-22T08:18:35;8.70;99.90
19829;DHT22;10075;50.924;4.396;2023-02-22T08:21:04;8.70;99.90
19829;DHT22;10075;50.924;4.396;2023-02-22T08:23:31;8.70;99.90
19829;DHT22;10075;50.924;4.396;2023-02-22T08:26:05;8.90;99.90
19829;DHT22;10075;50.924;4.396;2023-02-22T08:28:32;9.00;99.90
19829;DHT22;10075;50.924;4.396;2023-02-22T08:30:59;9.10;99.90
19829;DHT22;10075;50.924;4.396;2023-02-22T08:33:26;9.10;99.90
19829;DHT22;10075;50.924;4.396;2023-02-22T08:35:53;9.20;99.90
19829;DHT22;10075;50.924;4.396;2023-02-22T08:38:23;9.30;99.90
19829;DHT22;10075;50.924;4.396;2023-02-22T08:40:50;9.40;99.90
19829;DHT22;10075;50.924;4.396;2023-02-22T08:43:20;9.50;99.90
19829;DHT22;10075;50.924;4.396;2023-02-22T08:45:48;9.60;99.90
19829;DHT22;10075;50.924;4.396;2023-02-22T08:48:16;9.70;99.90
19829;DHT22;10075;50.924;4.396;2023-02-22T08:50:43;9.90;99.90
19829;DHT22;10075;50.924;4.396;2023-02-22T08:53:12;9.90;99.90
19829;DHT22;10075;50.924;4.396;2023-02-22T08:55:40;10.00;99.90
19829;DHT22;10075;50.924;4.396;2023-02-22T08:58:08;10.20;99.90
19829;DHT22;10075;50.924;4.396;2023-02-22T09:00:37;10.30;99.90
19829;DHT22;10075;50.924;4.396;2023-02-22T09:03:07;10.50;99.90
19829;DHT22;10075;50.924;4.396;2023-02-22T09:05:35;10.70;99.90
19829;DHT22;10075;50.924;4.396;2023-02-22T09:08:03;10.80;99.90
19829;DHT22;10075;50.924;4.396;2023-02-22T09:10:32;10.90;99.90
19829;DHT22;10075;50.924;4.396;2023-02-22T09:13:00;11.00;99.90
19829;DHT22;10075;50.924;4.396;2023-02-22T09:15:29;11.00;99.90
19829;DHT22;10075;50.924;4.396;2023-02-22T09:17:58;11.10;99.90
19829;DHT22;10075;50.924;4.396;2023-02-22T09:20:25;11.10;99.90
19829;DHT22;10075;50.924;4.396;2023-02-22T09:22:52;11.10;99.90
19829;DHT22;10075;50.924;4.396;2023-02-22T09:25:20;11.10;99.90
19829;DHT22;10075;50.924;4.396;2023-02-22T09:27:48;11.20;99.90
19829;DHT22;10075;50.924;4.396;2023-02-22T09:30:18;11.20;99.90
19829;DHT22;10075;50.924;4.396;2023-02-22T09:32:49;11.20;99.90
19829;DHT22;10075;50.924;4.396;2023-02-22T09:35:18;11.10;99.90
19829;DHT22;10075;50.924;4.396;2023-02-22T09:37:45;11.20;99.90
19829;DHT22;10075;50.924;4.396;2023-02-22T09:40:16;11.30;99.90
19829;DHT22;10075;50.924;4.396;2023-02-22T09:43:01;11.50;99.90
19829;DHT22;10075;50.924;4.396;2023-02-22T09:45:33;11.50;99.90
19829;DHT22;10075;50.924;4.396;2023-02-22T09:48:05;11.50;99.90
19829;DHT22;10075;50.924;4.396;2023-02-22T09:50:36;11.50;99.90
19829;DHT22;10075;50.924;4.396;2023-02-22T09:53:13;11.60;99.90
19829;DHT22;10075;50.924;4.396;2023-02-22T09:55:49;11.60;99.90
19829;DHT22;10075;50.924;4.396;2023-02-22T09:58:21;11.70;99.90
19829;DHT22;10075;50.924;4.396;2023-02-22T10:00:54;11.70;99.90
19829;DHT22;10075;50.924;4.396;2023-02-22T10:03:26;11.70;99.90
19829;DHT22;10075;50.924;4.396;2023-02-22T10:06:02;11.70;99.90
19829;DHT22;10075;50.924;4.396;2023-02-22T10:08:32;11.80;99.90
19829;DHT22;10075;50.924;4.396;2023-02-22T10:11:05;11.90;99.90
19829;DHT22;10075;50.924;4.396;2023-02-22T10:13:41;12.00;99.90
19829;DHT22;10075;50.924;4.396;2023-02-22T10:16:19;12.10;99.90
19829;DHT22;10075;50.924;4.396;2023-02-22T10:19:13;12.20;99.90
19829;DHT22;10075;50.924;4.396;2023-02-22T10:22:09;12.40;99.90
19829;DHT22;10075;50.924;4.396;2023-02-22T10:24:47;12.50;99.90
19829;DHT22;10075;50.924;4.396;2023-02-22T10:27:19;12.60;99.90
19829;DHT22;10075;50.924;4.396;2023-02-22T10:29:49;12.70;99.90
19829;DHT22;10075;50.924;4.396;2023-02-22T10:32:23;12.80;99.90
19829;DHT22;10075;50.924;4.396;2023-02-22T10:34:52;12.90;99.90
19829;DHT22;10075;50.924;4.396;2023-02-22T10:37:26;12.90;99.90
19829;DHT22;10075;50.924;4.396;2023-02-22T10:39:58;12.60;99.90
19829;DHT22;10075;50.924;4.396;2023-02-22T10:42:30;12.70;99.90
19829;DHT22;10075;50.924;4.396;2023-02-22T10:44:57;12.90;99.90
19829;DHT22;10075;50.924;4.396;2023-02-22T10:47:24;13.10;99.90
19829;DHT22;10075;50.924;4.396;2023-02-22T10:49:55;13.20;99.90
19829;DHT22;10075;50.924;4.396;2023-02-22T10:52:26;13.40;99.90
19829;DHT22;10075;50.924;4.396;2023-02-22T10:54:55;13.40;99.90
19829;DHT22;10075;50.924;4.396;2023-02-22T10:57:25;13.30;99.90
19829;DHT22;10075;50.924;4.396;2023-02-22T10:59:53;13.30;99.90
19829;DHT22;10075;50.924;4.396;2023-02-22T11:02:26;13.30;99.90
19829;DHT22;10075;50.924;4.396;2023-02-22T11:04:56;13.40;99.90
19829;DHT22;10075;50.924;4.396;2023-02-22T11:07:27;13.20;99.90
19829;DHT22;10075;50.924;4.396;2023-02-22T11:09:55;13.20;99.90
19829;DHT22;10075;50.924;4.396;2023-02-22T11:12:29;13.40;99.90
19829;DHT22;10075;50.924;4.396;2023-02-22T11:14:57;13.60;99.90
19829;DHT22;10075;50.924;4.396;2023-02-22T11:17:28;13.60;99.90
19829;DHT22;10075;50.924;4.396;2023-02-22T11:19:56;13.70;99.90
19829;DHT22;10075;50.924;4.396;2023-02-22T11:22:27;13.40;99.90
19829;DHT22;10075;50.924;4.396;2023-02-22T11:24:59;13.40;99.90
19829;DHT22;10075;50.924;4.396;2023-02-22T11:27:34;13.50;99.90
19829;DHT22;10075;50.924;4.396;2023-02-22T11:30:19;13.30;99.90
19829;DHT22;10075;50.924;4.396;2023-02-22T11:32:48;13.30;99.90
19829;DHT22;10075;50.924;4.396;2023-02-22T11:35:21;13.30;99.90
19829;DHT22;10075;50.924;4.396;2023-02-22T11:38:09;13.10;99.90
19829;DHT22;10075;50.924;4.396;2023-02-22T11:40:37;13.30;99.90
19829;DHT22;10075;50.924;4.396;2023-02-22T11:43:09;13.50;99.90
19829;DHT22;10075;50.924;4.396;2023-02-22T11:45:59;13.60;99.90
19829;DHT22;10075;50.924;4.396;2023-02-22T11:48:30;13.60;99.90
19829;DHT22;10075;50.924;4.396;2023-02-22T11:51:13;13.80;99.90
19829;DHT22;10075;50.924;4.396;2023-02-22T11:53:52;13.90;99.90
19829;DHT22;10075;50.924;4.396;2023-02-22T11:56:28;14.00;99.90
19829;DHT22;10075;50.924;4.396;2023-02-22T11:59:03;14.10;99.90
19829;DHT22;10075;50.924;4.396;2023-02-22T12:01:38;14.00;99.90
19829;DHT22;10075;50.924;4.396;2023-02-22T12:10:30;14.00;99.90
19829;DHT22;10075;50.924;4.396;2023-02-22T12:13:08;14.30;99.90
19829;DHT22;10075;50.924;4.396;2023-02-22T12:15:45;14.40;99.90
19829;DHT22;10075;50.924;4.396;2023-02-22T12:18:20;14.50;99.90
19829;DHT22;10075;50.924;4.396;2023-02-22T12:20:53;14.50;99.90
19829;DHT22;10075;50.924;4.396;2023-02-22T12:23:24;14.50;99.90
19829;DHT22;10075;50.924;4.396;2023-02-22T12:25:59;14.60;99.90
19829;DHT22;10075;50.924;4.396;2023-02-22T12:28:34;14.60;99.90
19829;DHT22;10075;50.924;4.396;2023-02-22T12:31:13;14.60;99.90
19829;DHT22;10075;50.924;4.396;2023-02-22T12:33:48;14.30;99.90
19829;DHT22;10075;50.924;4.396;2023-02-22T12:36:20;14.40;99.90
19829;DHT22;10075;50.924;4.396;2023-02-22T12:38:55;14.50;99.90
19829;DHT22;10075;50.924;4.396;2023-02-22T12:41:29;14.50;99.90
19829;DHT22;10075;50.924;4.396;2023-02-22T12:44:02;14.50;99.90
19829;DHT22;10075;50.924;4.396;2023-02-22T12:46:35;14.30;99.90
19829;DHT22;10075;50.924;4.396;2023-02-22T12:49:10;14.30;99.90
19829;DHT22;10075;50.924;4.396;2023-02-22T12:51:44;14.30;99.90
19829;DHT22;10075;50.924;4.396;2023-02-22T12:54:19;14.30;99.90
19829;DHT22;10075;50.924;4.396;2023-02-22T12:56:53;14.30;99.90
19829;DHT22;10075;50.924;4.396;2023-02-22T12:59:25;14.40;99.90
19829;DHT22;10075;50.924;4.396;2023-02-22T13:01:58;14.30;99.90
19829;DHT22;10075;50.924;4.396;2023-02-22T13:04:26;14.20;99.90
19829;DHT22;10075;50.924;4.396;2023-02-22T13:07:17;14.00;99.90
19829;DHT22;10075;50.924;4.396;2023-02-22T13:12:47;14.00;99.90
19829;DHT22;10075;50.924;4.396;2023-02-22T13:15:20;13.90;99.90
19829;DHT22;10075;50.924;4.396;2023-02-22T13:17:56;13.90;99.90
19829;DHT22;10075;50.924;4.396;2023-02-22T13:20:29;13.90;99.90
19829;DHT22;10075;50.924;4.396;2023-02-22T13:23:02;13.80;99.90
19829;DHT22;10075;50.924;4.396;2023-02-22T13:25:36;13.90;99.90
19829;DHT22;10075;50.924;4.396;2023-02-22T13:28:18;13.80;99.90
19829;DHT22;10075;50.924;4.396;2023-02-22T13:30:55;13.80;99.90
19829;DHT22;10075;50.924;4.396;2023-02-22T13:33:41;13.70;99.90
19829;DHT22;10075;50.924;4.396;2023-02-22T13:36:35;13.50;99.90
19829;DHT22;10075;50.924;4.396;2023-02-22T13:42:15;13.00;99.90
19829;DHT22;10075;50.924;4.396;2023-02-22T13:51:03;12.50;99.90
19829;DHT22;10075;50.924;4.396;2023-02-22T13:53:38;12.50;99.90
19829;DHT22;10075;50.924;4.396;2023-02-22T13:56:08;12.30;99.90
19829;DHT22;10075;50.924;4.396;2023-02-22T13:58:47;12.30;99.90
19829;DHT22;10075;50.924;4.396;2023-02-22T14:01:36;12.40;99.90
19829;DHT22;10075;50.924;4.396;2023-02-22T14:04:37;12.40;99.90
19829;DHT22;10075;50.924;4.396;2023-02-22T14:10:36;11.90;99.90
19829;DHT22;10075;50.924;4.396;2023-02-22T14:13:04;12.00;99.90
19829;DHT22;10075;50.924;4.396;2023-02-22T14:15:32;12.30;99.90
19829;DHT22;10075;50.924;4.396;2023-02-22T14:18:01;12.40;99.90
19829;DHT22;10075;50.924;4.396;2023-02-22T14:20:31;12.40;99.90
19829;DHT22;10075;50.924;4.396;2023-02-22T14:23:35;12.30;99.90
19829;DHT22;10075;50.924;4.396;2023-02-22T14:26:13;12.40;99.90
19829;DHT22;10075;50.924;4.396;2023-02-22T14:28:51;12.60;99.90
19829;DHT22;10075;50.924;4.396;2023-02-22T14:31:20;12.70;99.90
19829;DHT22;10075;50.924;4.396;2023-02-22T14:33:59;12.50;99.90
19829;DHT22;10075;50.924;4.396;2023-02-22T14:36:32;12.40;99.90
19829;DHT22;10075;50.924;4.396;2023-02-22T14:39:18;12.50;99.90
19829;DHT22;10075;50.924;4.396;2023-02-22T14:41:51;12.30;99.90
19829;DHT22;10075;50.924;4.396;2023-02-22T14:44:23;12.30;99.90
19829;DHT22;10075;50.924;4.396;2023-02-22T14:46:54;12.30;99.90
19829;DHT22;10075;50.924;4.396;2023-02-22T14:49:24;12.30;99.90
19829;DHT22;10075;50.924;4.396;2023-02-22T14:51:56;12.40;99.90
19829;DHT22;10075;50.924;4.396;2023-02-22T14:54:28;12.50;99.90
19829;DHT22;10075;50.924;4.396;2023-02-22T14:57:04;12.60;99.90
19829;DHT22;10075;50.924;4.396;2023-02-22T14:59:51;12.20;99.90
19829;DHT22;10075;50.924;4.396;2023-02-22T15:02:24;12.00;99.90
19829;DHT22;10075;50.924;4.396;2023-02-22T15:04:53;12.20;99.90
19829;DHT22;10075;50.924;4.396;2023-02-22T15:07:24;12.30;99.90
19829;DHT22;10075;50.924;4.396;2023-02-22T15:10:05;12.40;99.90
19829;DHT22;10075;50.924;4.396;2023-02-22T15:12:32;12.40;99.90
19829;DHT22;10075;50.924;4.396;2023-02-22T15:15:12;12.40;99.90
19829;DHT22;10075;50.924;4.396;2023-02-22T15:17:39;12.20;99.90
19829;DHT22;10075;50.924;4.396;2023-02-22T15:20:14;11.90;99.90
19829;DHT22;10075;50.924;4.396;2023-02-22T15:22:43;11.80;99.90
19829;DHT22;10075;50.924;4.396;2023-02-22T15:25:10;11.80;99.90
19829;DHT22;10075;50.924;4.396;2023-02-22T15:27:38;11.60;99.90
19829;DHT22;10075;50.924;4.396;2023-02-22T15:30:13;11.60;99.90
19829;DHT22;10075;50.924;4.396;2023-02-22T15:32:42;11.50;99.90
19829;DHT22;10075;50.924;4.396;2023-02-22T15:35:14;11.30;99.90
19829;DHT22;10075;50.924;4.396;2023-02-22T15:37:45;11.10;99.90
19829;DHT22;10075;50.924;4.396;2023-02-22T15:40:14;11.20;99.90
19829;DHT22;10075;50.924;4.396;2023-02-22T15:42:45;11.30;99.90
19829;DHT22;10075;50.924;4.396;2023-02-22T15:45:18;11.30;99.90
19829;DHT22;10075;50.924;4.396;2023-02-22T15:47:45;11.30;99.90
19829;DHT22;10075;50.924;4.396;2023-02-22T15:50:17;11.50;99.90
19829;DHT22;10075;50.924;4.396;2023-02-22T15:52:49;11.40;99.90
19829;DHT22;10075;50.924;4.396;2023-02-22T15:55:19;11.50;99.90
19829;DHT22;10075;50.924;4.396;2023-02-22T15:57:47;11.70;99.90
19829;DHT22;10075;50.924;4.396;2023-02-22T16:00:20;11.80;99.90
19829;DHT22;10075;50.924;4.396;2023-02-22T16:02:48;11.80;99.90
19829;DHT22;10075;50.924;4.396;2023-02-22T16:05:17;11.60;99.90
19829;DHT22;10075;50.924;4.396;2023-02-22T16:07:49;11.50;99.90
19829;DHT22;10075;50.924;4.396;2023-02-22T16:10:23;11.60;99.90
19829;DHT22;10075;50.924;4.396;2023-02-22T16:13:03;11.60;99.90
19829;DHT22;10075;50.924;4.396;2023-02-22T16:15:31;11.50;99.90
19829;DHT22;10075;50.924;4.396;2023-02-22T16:18:16;11.40;99.90
19829;DHT22;10075;50.924;4.396;2023-02-22T16:20:57;11.30;99.90
19829;DHT22;10075;50.924;4.396;2023-02-22T16:23:27;11.20;99.90
19829;DHT22;10075;50.924;4.396;2023-02-22T16:26:03;10.90;99.90
19829;DHT22;10075;50.924;4.396;2023-02-22T16:28:30;10.90;99.90